Time;durP1;ratioP1;P1;durP2;ratioP2;P2;SDS_P1;SDS_P2;PMS_P1;PMS_P2;Temp;Humidity;BMP_temperature;BMP_pressure;BME280_temperature;BME280_humidity;BME280_pressure;Samples;Min_cycle;Max_cycle;Signal;HPM_P1;HPM_P2
2022/10/30 00:00:53;;;;;;;19.73;9.65;;;;;;;;;;5052128;28;20053;-88
2022/10/30 00:03:21;;;;;;;23.23;9.63;;;;;;;;;;5052473;28;20057;-88
2022/10/30 00:05:50;;;;;;;17.92;9.52;;;;;;;;;;5052175;28;20053;-89
2022/10/30 00:08:18;;;;;;;17.02;8.75;;;;;;;;;;5052327;28;20095;-89
2022/10/30 00:10:49;;;;;;;23.30;8.90;;;;;;;;;;5052083;28;20053;-89
2022/10/30 00:13:16;;;;;;;19.92;8.77;;;;;;;;;;5052021;28;20056;-88
2022/10/30 00:15:48;;;;;;;21.42;9.05;;;;;;;;;;5052134;28;20076;-88
2022/10/30 00:18:15;;;;;;;19.00;8.43;;;;;;;;;;5052484;28;20045;-88
2022/10/30 00:20:43;;;;;;;18.92;8.70;;;;;;;;;;5062253;28;20044;-88
2022/10/30 00:23:10;;;;;;;22.85;8.90;;;;;;;;;;5072180;28;20051;-89
2022/10/30 00:25:37;;;;;;;24.65;9.45;;;;;;;;;;5071766;28;20104;-89
2022/10/30 00:28:05;;;;;;;16.98;9.00;;;;;;;;;;5072014;28;20425;-89
2022/10/30 00:30:33;;;;;;;15.82;8.43;;;;;;;;;;5072206;28;20045;-88
2022/10/30 00:33:00;;;;;;;19.02;9.40;;;;;;;;;;5072418;28;20530;-89
2022/10/30 00:35:28;;;;;;;19.45;9.13;;;;;;;;;;5074582;28;20055;-89
2022/10/30 00:37:55;;;;;;;19.50;9.38;;;;;;;;;;5076543;28;20048;-88
2022/10/30 00:40:23;;;;;;;24.08;9.10;;;;;;;;;;5075487;28;20139;-89
2022/10/30 00:42:50;;;;;;;21.08;9.57;;;;;;;;;;5075641;28;20044;-89
2022/10/30 00:45:18;;;;;;;19.10;8.95;;;;;;;;;;5075797;28;20058;-88
2022/10/30 00:47:51;;;;;;;15.13;8.57;;;;;;;;;;5079810;28;20050;-89
2022/10/30 00:50:25;;;;;;;16.33;10.27;;;;;;;;;;5076198;28;20407;-89
2022/10/30 00:52:56;;;;;;;14.02;8.98;;;;;;;;;;5086817;28;20071;-89
2022/10/30 00:55:27;;;;;;;15.38;8.73;;;;;;;;;;5076090;28;20052;-89
2022/10/30 00:57:55;;;;;;;19.23;9.60;;;;;;;;;;5075468;28;20094;-89
2022/10/30 01:00:24;;;;;;;15.10;9.18;;;;;;;;;;5075306;28;20052;-89
2022/10/30 01:02:51;;;;;;;15.05;9.52;;;;;;;;;;5075213;28;20055;-89
2022/10/30 01:05:21;;;;;;;16.35;7.93;;;;;;;;;;5074742;28;20151;-89
2022/10/30 01:07:48;;;;;;;21.27;9.13;;;;;;;;;;5075124;28;20048;-89
2022/10/30 01:10:15;;;;;;;20.27;9.15;;;;;;;;;;5075253;28;20052;-89
2022/10/30 01:12:43;;;;;;;24.13;9.77;;;;;;;;;;5074907;28;20049;-88
2022/10/30 01:15:11;;;;;;;25.27;9.10;;;;;;;;;;5074863;28;20123;-89
2022/10/30 01:17:57;;;;;;;16.30;9.13;;;;;;;;;;5074739;28;20135;-89
2022/10/30 01:20:33;;;;;;;17.25;9.23;;;;;;;;;;5075032;28;20075;-89
2022/10/30 01:23:14;;;;;;;15.85;9.10;;;;;;;;;;5075028;28;20048;-89
2022/10/30 01:26:07;;;;;;;14.00;8.65;;;;;;;;;;5074669;28;20492;-88
2022/10/30 01:28:59;;;;;;;25.38;10.02;;;;;;;;;;5074880;28;20050;-89
2022/10/30 01:31:41;;;;;;;17.48;9.02;;;;;;;;;;5075124;28;20131;-89
2022/10/30 01:34:17;;;;;;;16.83;8.18;;;;;;;;;;5075272;28;20048;-90
2022/10/30 01:36:47;;;;;;;18.05;8.75;;;;;;;;;;5074911;28;20131;-88
2022/10/30 01:39:17;;;;;;;18.35;8.68;;;;;;;;;;5074906;28;20538;-89
2022/10/30 01:41:44;;;;;;;20.20;8.38;;;;;;;;;;5074808;28;20053;-89
2022/10/30 01:44:20;;;;;;;21.55;9.43;;;;;;;;;;5074650;28;20147;-89
2022/10/30 01:47:05;;;;;;;18.48;8.27;;;;;;;;;;5073155;28;20048;-89
2022/10/30 01:49:33;;;;;;;15.80;7.82;;;;;;;;;;5074433;28;20489;-89
2022/10/30 01:52:20;;;;;;;17.85;7.43;;;;;;;;;;5074593;28;20066;-89
2022/10/30 01:55:08;;;;;;;20.13;8.18;;;;;;;;;;5074229;28;20052;-89
2022/10/30 01:57:38;;;;;;;17.55;8.35;;;;;;;;;;5053896;28;20048;-88
2022/10/30 02:00:06;;;;;;;19.25;8.65;;;;;;;;;;5074378;28;20515;-88
2022/10/30 02:02:33;;;;;;;19.65;9.07;;;;;;;;;;5074192;28;20059;-89
2022/10/30 02:05:01;;;;;;;20.50;8.48;;;;;;;;;;5073868;28;20052;-89
2022/10/30 02:07:28;;;;;;;15.90;7.63;;;;;;;;;;5074262;28;20053;-88
2022/10/30 02:09:56;;;;;;;19.60;7.82;;;;;;;;;;5087889;28;20048;-88
2022/10/30 02:12:23;;;;;;;21.15;8.32;;;;;;;;;;5075430;28;20052;-89
2022/10/30 02:14:52;;;;;;;18.85;8.20;;;;;;;;;;5073813;28;20052;-88
2022/10/30 02:17:20;;;;;;;14.65;7.43;;;;;;;;;;5073683;28;20060;-88
2022/10/30 02:19:47;;;;;;;17.38;7.85;;;;;;;;;;5073631;28;20473;-89
2022/10/30 02:22:16;;;;;;;14.52;8.48;;;;;;;;;;5073657;28;20048;-88
2022/10/30 02:24:44;;;;;;;18.40;8.13;;;;;;;;;;5073548;28;20052;-88
2022/10/30 02:27:11;;;;;;;16.30;8.10;;;;;;;;;;5073489;28;20060;-89
2022/10/30 02:29:39;;;;;;;19.42;9.15;;;;;;;;;;5073623;28;20441;-88
2022/10/30 02:32:06;;;;;;;21.63;8.73;;;;;;;;;;5073497;28;20404;-88
2022/10/30 02:34:33;;;;;;;20.33;9.00;;;;;;;;;;5073405;28;20047;-89
2022/10/30 02:37:00;;;;;;;17.55;9.40;;;;;;;;;;5073437;28;20055;-88
2022/10/30 02:39:28;;;;;;;15.93;9.15;;;;;;;;;;5073436;28;20055;-89
2022/10/30 02:41:55;;;;;;;20.02;10.23;;;;;;;;;;5073537;28;20143;-89
2022/10/30 02:44:22;;;;;;;20.67;8.55;;;;;;;;;;5073359;28;20055;-88
2022/10/30 02:46:50;;;;;;;18.95;10.27;;;;;;;;;;5072927;28;20044;-89
2022/10/30 02:49:17;;;;;;;17.30;10.38;;;;;;;;;;5073115;28;20071;-88
2022/10/30 02:51:44;;;;;;;19.02;11.05;;;;;;;;;;5072933;28;20492;-88
2022/10/30 02:54:11;;;;;;;23.50;11.25;;;;;;;;;;5073103;28;20056;-88
2022/10/30 02:56:42;;;;;;;29.35;12.65;;;;;;;;;;5072832;28;20500;-89
2022/10/30 02:59:09;;;;;;;23.65;11.98;;;;;;;;;;5072766;28;20056;-89
2022/10/30 03:01:36;;;;;;;22.15;11.60;;;;;;;;;;5073085;28;20507;-88
2022/10/30 03:04:04;;;;;;;21.88;12.70;;;;;;;;;;5072803;28;20136;-89
2022/10/30 03:06:31;;;;;;;21.05;10.63;;;;;;;;;;5072381;28;20056;-88
2022/10/30 03:08:58;;;;;;;19.55;9.30;;;;;;;;;;5072797;28;20054;-88
2022/10/30 03:11:26;;;;;;;22.30;10.20;;;;;;;;;;5072833;28;20385;-88
2022/10/30 03:13:53;;;;;;;21.70;9.43;;;;;;;;;;5072687;28;20050;-87
2022/10/30 03:16:22;;;;;;;18.52;9.75;;;;;;;;;;5072899;28;20052;-88
2022/10/30 03:18:49;;;;;;;16.70;9.18;;;;;;;;;;5072692;28;20044;-88
2022/10/30 03:21:18;;;;;;;18.83;8.77;;;;;;;;;;5072707;28;20048;-88
2022/10/30 03:23:46;;;;;;;26.92;9.40;;;;;;;;;;5072820;28;20044;-88
2022/10/30 03:26:13;;;;;;;26.77;10.73;;;;;;;;;;5086471;28;20135;-88
2022/10/30 03:28:40;;;;;;;14.52;9.38;;;;;;;;;;5074491;28;20041;-88
2022/10/30 03:31:08;;;;;;;16.05;10.45;;;;;;;;;;5072473;28;20052;-88
2022/10/30 03:33:36;;;;;;;21.15;10.57;;;;;;;;;;5072683;28;20059;-88
2022/10/30 03:36:04;;;;;;;19.40;11.10;;;;;;;;;;5072485;28;20044;-89
2022/10/30 03:38:31;;;;;;;20.33;10.45;;;;;;;;;;5072359;28;20054;-88
2022/10/30 03:40:59;;;;;;;18.58;9.65;;;;;;;;;;5072695;28;20135;-88
2022/10/30 03:43:26;;;;;;;19.58;9.90;;;;;;;;;;5072456;28;20127;-88
2022/10/30 03:45:55;;;;;;;13.38;9.00;;;;;;;;;;5072395;28;20063;-89
2022/10/30 03:48:23;;;;;;;24.95;10.07;;;;;;;;;;5072385;28;20056;-88
2022/10/30 03:50:55;;;;;;;22.48;9.77;;;;;;;;;;5072469;28;20060;-89
2022/10/30 03:53:27;;;;;;;19.73;9.15;;;;;;;;;;5072577;28;20515;-88
2022/10/30 03:55:58;;;;;;;14.85;8.70;;;;;;;;;;5072227;28;20049;-89
2022/10/30 03:58:26;;;;;;;17.52;9.55;;;;;;;;;;5072276;28;20079;-89
2022/10/30 04:00:53;;;;;;;19.95;10.13;;;;;;;;;;5072454;28;20062;-89
2022/10/30 04:03:21;;;;;;;16.52;9.73;;;;;;;;;;5072427;28;20052;-88
2022/10/30 04:05:49;;;;;;;14.77;8.88;;;;;;;;;;5071889;28;20059;-89
2022/10/30 04:08:17;;;;;;;19.38;9.95;;;;;;;;;;5072082;28;20052;-89
2022/10/30 04:10:45;;;;;;;20.20;8.85;;;;;;;;;;5074311;28;20049;-89
2022/10/30 04:13:13;;;;;;;19.70;9.18;;;;;;;;;;5076179;28;20059;-89
2022/10/30 04:15:41;;;;;;;21.92;9.20;;;;;;;;;;5075842;28;20067;-89
2022/10/30 04:18:12;;;;;;;18.75;9.07;;;;;;;;;;5076045;28;20055;-88
2022/10/30 04:20:39;;;;;;;16.42;8.43;;;;;;;;;;5076130;28;20044;-89
2022/10/30 04:23:08;;;;;;;14.65;8.95;;;;;;;;;;5076009;28;20048;-89
2022/10/30 04:25:35;;;;;;;19.27;8.90;;;;;;;;;;5076483;28;20132;-88
2022/10/30 04:28:03;;;;;;;15.88;8.00;;;;;;;;;;5076649;28;20064;-88
2022/10/30 04:30:35;;;;;;;14.35;9.55;;;;;;;;;;5075841;28;20044;-88
2022/10/30 04:33:05;;;;;;;13.52;7.80;;;;;;;;;;5076907;28;20412;-88
2022/10/30 04:35:33;;;;;;;13.45;8.27;;;;;;;;;;5075725;28;20415;-89
2022/10/30 04:38:02;;;;;;;15.65;7.97;;;;;;;;;;5075798;28;20071;-88
2022/10/30 04:40:30;;;;;;;15.30;7.22;;;;;;;;;;5078296;28;20135;-89
2022/10/30 04:42:58;;;;;;;15.68;8.15;;;;;;;;;;5088522;28;20084;-88
2022/10/30 04:45:25;;;;;;;20.45;8.00;;;;;;;;;;5076748;28;20045;-89
2022/10/30 04:47:53;;;;;;;20.08;8.35;;;;;;;;;;5075352;28;20056;-88
2022/10/30 04:50:20;;;;;;;16.42;7.35;;;;;;;;;;5075539;28;20480;-88
2022/10/30 04:52:47;;;;;;;16.00;7.32;;;;;;;;;;5075245;28;20048;-89
2022/10/30 04:55:14;;;;;;;17.52;7.57;;;;;;;;;;5075378;28;20048;-88
2022/10/30 04:57:41;;;;;;;19.95;9.35;;;;;;;;;;5075035;28;20048;-89
2022/10/30 05:00:10;;;;;;;13.57;7.45;;;;;;;;;;5075351;28;20076;-89
2022/10/30 05:02:37;;;;;;;14.57;8.35;;;;;;;;;;5075086;28;20095;-88
2022/10/30 05:05:05;;;;;;;14.15;7.72;;;;;;;;;;5074860;28;20052;-89
2022/10/30 05:07:32;;;;;;;22.15;8.52;;;;;;;;;;5076169;28;20059;-89
2022/10/30 05:10:00;;;;;;;19.15;10.27;;;;;;;;;;5076237;28;20051;-88
2022/10/30 05:12:27;;;;;;;20.83;9.85;;;;;;;;;;5074928;28;20485;-87
2022/10/30 05:14:54;;;;;;;16.05;8.85;;;;;;;;;;5074936;28;20055;-87
2022/10/30 05:17:21;;;;;;;15.30;8.43;;;;;;;;;;5074947;28;20056;-88
2022/10/30 05:19:49;;;;;;;15.18;9.32;;;;;;;;;;5074920;28;20048;-88
2022/10/30 05:22:16;;;;;;;13.88;7.20;;;;;;;;;;5074725;28;20070;-88
2022/10/30 05:24:43;;;;;;;22.75;7.82;;;;;;;;;;5074715;28;20044;-85
2022/10/30 05:27:10;;;;;;;16.50;6.57;;;;;;;;;;5074563;28;20054;-88
2022/10/30 05:29:37;;;;;;;7.95;5.13;;;;;;;;;;5075423;28;20051;-88
2022/10/30 05:32:05;;;;;;;14.05;5.72;;;;;;;;;;5074589;28;20060;-87
2022/10/30 05:34:32;;;;;;;14.52;5.65;;;;;;;;;;5075320;28;20055;-87
2022/10/30 05:37:00;;;;;;;11.68;5.20;;;;;;;;;;5074453;28;20052;-88
2022/10/30 05:39:27;;;;;;;18.48;5.72;;;;;;;;;;5074471;28;20044;-89
2022/10/30 05:41:54;;;;;;;19.75;5.72;;;;;;;;;;5074260;28;20177;-88
2022/10/30 05:44:22;;;;;;;16.42;5.20;;;;;;;;;;5074443;28;20048;-90
2022/10/30 05:47:10;;;;;;;15.65;4.82;;;;;;;;;;5074289;28;20048;-87
2022/10/30 05:49:37;;;;;;;13.50;4.63;;;;;;;;;;5074125;28;20131;-87
2022/10/30 05:52:05;;;;;;;20.85;5.35;;;;;;;;;;5074300;28;20048;-88
2022/10/30 05:54:32;;;;;;;15.10;4.82;;;;;;;;;;5073948;28;20056;-89
2022/10/30 05:56:59;;;;;;;16.35;4.97;;;;;;;;;;5078433;28;20480;-88
2022/10/30 05:59:26;;;;;;;13.32;4.78;;;;;;;;;;5085374;28;20075;-89
2022/10/30 06:01:54;;;;;;;13.65;4.95;;;;;;;;;;5075065;28;20052;-89
2022/10/30 06:04:22;;;;;;;11.07;4.80;;;;;;;;;;5073772;28;20044;-89
2022/10/30 06:06:50;;;;;;;16.05;5.93;;;;;;;;;;5073737;28;20504;-89
2022/10/30 06:09:17;;;;;;;15.98;5.40;;;;;;;;;;5073835;28;20044;-89
2022/10/30 06:11:44;;;;;;;14.30;5.25;;;;;;;;;;5073875;28;20055;-89
2022/10/30 06:14:11;;;;;;;13.85;5.50;;;;;;;;;;5074106;28;20055;-90
2022/10/30 06:16:39;;;;;;;10.30;5.72;;;;;;;;;;5073739;28;20052;-89
2022/10/30 06:19:06;;;;;;;18.33;6.00;;;;;;;;;;5074070;28;20423;-89
2022/10/30 06:21:33;;;;;;;19.08;6.30;;;;;;;;;;5073396;28;20419;-89
2022/10/30 06:24:00;;;;;;;14.80;5.80;;;;;;;;;;5073845;28;20058;-89
2022/10/30 06:26:28;;;;;;;21.05;5.80;;;;;;;;;;5073614;28;20077;-89
2022/10/30 06:28:55;;;;;;;13.00;5.35;;;;;;;;;;5073646;28;20045;-89
2022/10/30 06:31:22;;;;;;;14.77;6.00;;;;;;;;;;5074515;28;20045;-88
2022/10/30 06:33:50;;;;;;;14.55;4.88;;;;;;;;;;5073544;28;20116;-89
2022/10/30 06:36:17;;;;;;;10.85;5.20;;;;;;;;;;5073890;28;20050;-89
2022/10/30 06:38:44;;;;;;;14.18;5.50;;;;;;;;;;5073381;28;20067;-89
2022/10/30 06:41:11;;;;;;;10.80;4.93;;;;;;;;;;5073490;28;20048;-89
2022/10/30 06:43:39;;;;;;;16.70;5.80;;;;;;;;;;5073198;28;20132;-89
2022/10/30 06:46:06;;;;;;;14.35;5.07;;;;;;;;;;5073363;28;20389;-89
2022/10/30 06:48:33;;;;;;;14.23;5.65;;;;;;;;;;5073148;28;20064;-89
2022/10/30 06:51:01;;;;;;;33.45;6.55;;;;;;;;;;5072998;28;20052;-89
2022/10/30 06:53:29;;;;;;;37.05;7.70;;;;;;;;;;5072986;28;20156;-89
2022/10/30 06:56:00;;;;;;;13.95;5.10;;;;;;;;;;5072792;28;20127;-88
2022/10/30 06:58:28;;;;;;;16.25;5.50;;;;;;;;;;5073179;28;20059;-89
2022/10/30 07:00:55;;;;;;;21.17;5.10;;;;;;;;;;5073495;28;20048;-89
2022/10/30 07:03:22;;;;;;;18.67;5.78;;;;;;;;;;5072896;28;20148;-88
2022/10/30 07:05:51;;;;;;;12.63;4.28;;;;;;;;;;5072480;28;20059;-88
2022/10/30 07:08:18;;;;;;;15.05;4.55;;;;;;;;;;5072867;28;20048;-90
2022/10/30 07:10:45;;;;;;;11.43;3.85;;;;;;;;;;5072879;28;20044;-89
2022/10/30 07:13:13;;;;;;;13.15;4.53;;;;;;;;;;5076416;28;20048;-88
2022/10/30 07:15:40;;;;;;;11.32;4.25;;;;;;;;;;5086624;28;20468;-89
2022/10/30 07:18:09;;;;;;;17.38;4.65;;;;;;;;;;5073343;28;20378;-89
2022/10/30 07:20:37;;;;;;;13.90;4.35;;;;;;;;;;5072483;28;20060;-88
2022/10/30 07:23:04;;;;;;;14.10;4.28;;;;;;;;;;5072771;28;20064;-89
2022/10/30 07:25:31;;;;;;;9.55;4.18;;;;;;;;;;5072496;28;20079;-88
2022/10/30 07:27:59;;;;;;;20.05;4.72;;;;;;;;;;5072385;28;20086;-88
2022/10/30 07:30:27;;;;;;;10.35;3.60;;;;;;;;;;5072420;28;20053;-86
2022/10/30 07:33:04;;;;;;;11.85;3.45;;;;;;;;;;5071699;28;20097;-86
2022/10/30 07:35:32;;;;;;;8.27;3.58;;;;;;;;;;5072283;28;20045;-87
2022/10/30 07:38:04;;;;;;;8.77;3.13;;;;;;;;;;5072253;28;20054;-87
2022/10/30 07:40:31;;;;;;;10.85;3.90;;;;;;;;;;5072320;28;20049;-86
2022/10/30 07:43:01;;;;;;;17.75;4.07;;;;;;;;;;5071851;28;20058;-87
2022/10/30 07:45:29;;;;;;;8.30;3.35;;;;;;;;;;5070895;28;20057;-86
2022/10/30 07:47:56;;;;;;;11.77;3.88;;;;;;;;;;5072010;28;20048;-87
2022/10/30 07:50:24;;;;;;;12.73;3.85;;;;;;;;;;5072397;28;20052;-87
2022/10/30 07:52:51;;;;;;;10.98;3.30;;;;;;;;;;5072058;28;20064;-86
2022/10/30 07:55:19;;;;;;;12.95;3.50;;;;;;;;;;5071932;28;20055;-87
2022/10/30 07:57:46;;;;;;;5.10;3.03;;;;;;;;;;5072776;28;20049;-89
2022/10/30 08:00:14;;;;;;;10.45;3.08;;;;;;;;;;5072952;28;20056;-86
2022/10/30 08:02:42;;;;;;;16.05;3.80;;;;;;;;;;5060490;28;20049;-88
2022/10/30 08:05:09;;;;;;;12.35;3.60;;;;;;;;;;5052709;28;20111;-89
2022/10/30 08:07:38;;;;;;;12.05;3.53;;;;;;;;;;5051921;28;20060;-86
2022/10/30 08:10:06;;;;;;;11.80;4.10;;;;;;;;;;5051714;28;20048;-87
2022/10/30 08:12:34;;;;;;;11.05;3.33;;;;;;;;;;5051505;28;20508;-87
2022/10/30 08:15:01;;;;;;;10.98;3.58;;;;;;;;;;5052291;28;20063;-86
2022/10/30 08:17:29;;;;;;;15.23;3.55;;;;;;;;;;5052198;28;20053;-85
2022/10/30 08:19:56;;;;;;;13.52;3.17;;;;;;;;;;5052144;28;20041;-84
2022/10/30 08:22:24;;;;;;;13.60;4.18;;;;;;;;;;5052021;28;20131;-86
2022/10/30 08:24:51;;;;;;;11.00;3.45;;;;;;;;;;5051486;28;20083;-85
2022/10/30 08:27:18;;;;;;;32.95;17.25;;;;;;;;;;5051718;28;20053;-84
2022/10/30 08:29:46;;;;;;;18.02;6.00;;;;;;;;;;5055533;28;20108;-86
2022/10/30 08:32:14;;;;;;;19.80;9.80;;;;;;;;;;5061149;28;20489;-85
2022/10/30 08:34:41;;;;;;;14.23;5.07;;;;;;;;;;5051900;28;20059;-84
2022/10/30 08:37:08;;;;;;;11.95;5.25;;;;;;;;;;5051642;28;20064;-84
2022/10/30 08:39:35;;;;;;;13.45;4.40;;;;;;;;;;5051456;28;20049;-86
2022/10/30 08:42:06;;;;;;;10.52;5.60;;;;;;;;;;5051558;28;20481;-85
2022/10/30 08:44:33;;;;;;;15.00;8.00;;;;;;;;;;5051728;28;20049;-86
2022/10/30 08:47:00;;;;;;;21.15;10.80;;;;;;;;;;5051519;28;20552;-86
2022/10/30 08:49:27;;;;;;;12.27;5.70;;;;;;;;;;5051569;28;20049;-86
2022/10/30 08:51:54;;;;;;;10.50;3.85;;;;;;;;;;5051880;28;20076;-86
2022/10/30 08:54:22;;;;;;;11.27;5.68;;;;;;;;;;5051701;28;20056;-87
2022/10/30 08:56:49;;;;;;;9.70;3.75;;;;;;;;;;5054019;28;20053;-87
2022/10/30 08:59:17;;;;;;;66.95;5.50;;;;;;;;;;5056236;28;20048;-88
2022/10/30 09:01:49;;;;;;;56.97;5.88;;;;;;;;;;5055491;28;20081;-87
2022/10/30 09:04:17;;;;;;;72.53;6.43;;;;;;;;;;5055378;28;20535;-88
2022/10/30 09:06:44;;;;;;;32.17;4.20;;;;;;;;;;5054649;28;20545;-86
2022/10/30 09:09:13;;;;;;;21.90;3.55;;;;;;;;;;5055144;28;20064;-86
2022/10/30 09:11:40;;;;;;;68.68;6.75;;;;;;;;;;5055058;28;20060;-86
2022/10/30 09:14:07;;;;;;;10.18;3.25;;;;;;;;;;5055302;28;20057;-86
2022/10/30 09:16:35;;;;;;;84.05;9.38;;;;;;;;;;5055615;28;20045;-86
2022/10/30 09:19:03;;;;;;;26.30;3.97;;;;;;;;;;5055206;28;20504;-87
2022/10/30 09:21:30;;;;;;;14.90;3.45;;;;;;;;;;5055510;28;20076;-88
2022/10/30 09:23:57;;;;;;;25.17;3.53;;;;;;;;;;5055410;28;20051;-86
2022/10/30 09:26:28;;;;;;;15.85;3.65;;;;;;;;;;5056754;28;20045;-88
2022/10/30 09:28:58;;;;;;;15.45;3.15;;;;;;;;;;5060657;28;20098;-86
2022/10/30 09:31:26;;;;;;;15.57;3.70;;;;;;;;;;5068815;28;20390;-85
2022/10/30 09:33:53;;;;;;;31.02;8.40;;;;;;;;;;5056368;28;20053;-89
2022/10/30 09:36:20;;;;;;;29.58;5.43;;;;;;;;;;5066018;28;20041;-87
2022/10/30 09:38:48;;;;;;;8.90;3.00;;;;;;;;;;5083082;28;20053;-85
2022/10/30 09:41:35;;;;;;;9.38;3.53;;;;;;;;;;5081231;28;20052;-86
2022/10/30 09:44:02;;;;;;;18.60;4.35;;;;;;;;;;5079129;28;20412;-85
2022/10/30 09:46:43;;;;;;;10.68;3.13;;;;;;;;;;5080245;28;20048;-87
2022/10/30 09:49:26;;;;;;;10.02;2.75;;;;;;;;;;5082885;28;20076;-86
2022/10/30 09:52:07;;;;;;;11.20;2.80;;;;;;;;;;5074889;28;20061;-87
2022/10/30 09:54:46;;;;;;;22.80;4.78;;;;;;;;;;5074597;28;20056;-86
2022/10/30 09:57:28;;;;;;;233.85;22.58;;;;;;;;;;5074286;28;20044;-85
2022/10/30 10:00:02;;;;;;;32.30;6.97;;;;;;;;;;5073989;28;20052;-86
2022/10/30 10:02:32;;;;;;;20.55;4.00;;;;;;;;;;5075915;28;20507;-87
2022/10/30 10:05:06;;;;;;;12.52;2.88;;;;;;;;;;5073968;28;20052;-86
2022/10/30 10:07:40;;;;;;;17.13;3.80;;;;;;;;;;5072803;28;20054;-87
2022/10/30 10:10:11;;;;;;;12.13;3.90;;;;;;;;;;5074442;28;20051;-86
2022/10/30 10:12:39;;;;;;;104.95;12.90;;;;;;;;;;5073194;28;20143;-86
2022/10/30 10:15:13;;;;;;;20.52;4.10;;;;;;;;;;5073996;28;20049;-88
2022/10/30 10:17:44;;;;;;;9.60;2.78;;;;;;;;;;5074497;28;20060;-88
2022/10/30 10:20:27;;;;;;;12.70;4.28;;;;;;;;;;5074222;28;20130;-89
2022/10/30 10:22:57;;;;;;;10.55;3.05;;;;;;;;;;5074260;28;20052;-87
2022/10/30 10:25:25;;;;;;;12.88;2.92;;;;;;;;;;5074355;28;20086;-87
2022/10/30 10:28:08;;;;;;;10.98;3.20;;;;;;;;;;5073588;28;20565;-88
2022/10/30 10:30:50;;;;;;;34.92;5.00;;;;;;;;;;5073717;28;20481;-87
2022/10/30 10:33:33;;;;;;;31.00;5.32;;;;;;;;;;5073682;28;20056;-87
2022/10/30 10:36:16;;;;;;;21.73;3.50;;;;;;;;;;5073670;28;20489;-86
2022/10/30 10:38:58;;;;;;;12.75;2.63;;;;;;;;;;5073570;28;20056;-87
2022/10/30 10:41:32;;;;;;;10.57;2.90;;;;;;;;;;5073335;28;20040;-87
2022/10/30 10:44:02;;;;;;;45.65;6.45;;;;;;;;;;5073751;28;20058;-87
2022/10/30 10:46:38;;;;;;;9.05;2.83;;;;;;;;;;5073218;28;20502;-87
2022/10/30 10:49:15;;;;;;;15.75;2.85;;;;;;;;;;5073033;28;20052;-88
2022/10/30 10:51:45;;;;;;;11.30;2.83;;;;;;;;;;5073155;28;20049;-86
2022/10/30 10:54:25;;;;;;;17.83;3.15;;;;;;;;;;5074141;28;20048;-88
2022/10/30 10:56:53;;;;;;;13.70;3.35;;;;;;;;;;5073206;28;20059;-87
2022/10/30 10:59:26;;;;;;;25.98;3.97;;;;;;;;;;5073205;28;20052;-87
2022/10/30 11:02:10;;;;;;;16.70;3.08;;;;;;;;;;5073399;28;20059;-87
2022/10/30 11:04:43;;;;;;;13.15;2.90;;;;;;;;;;5090510;28;20055;-87
2022/10/30 11:07:30;;;;;;;15.63;3.75;;;;;;;;;;5073266;28;20488;-88
2022/10/30 11:09:57;;;;;;;18.65;3.38;;;;;;;;;;5073067;28;20062;-87
2022/10/30 11:12:45;;;;;;;21.02;2.83;;;;;;;;;;5073029;28;20051;-87
2022/10/30 11:15:38;;;;;;;11.18;2.30;;;;;;;;;;5073192;28;20050;-88
2022/10/30 11:18:07;;;;;;;9.88;2.30;;;;;;;;;;5050279;28;20052;-85
2022/10/30 11:20:37;;;;;;;12.70;2.72;;;;;;;;;;5072382;28;20082;-87
2022/10/30 11:23:24;;;;;;;12.35;2.45;;;;;;;;;;5073142;28;20061;-87
2022/10/30 11:25:52;;;;;;;24.63;3.70;;;;;;;;;;5072858;28;20525;-89
2022/10/30 11:28:31;;;;;;;23.23;3.38;;;;;;;;;;5072545;28;20075;-86
2022/10/30 11:31:17;;;;;;;8.40;2.35;;;;;;;;;;5072731;28;20056;-88
2022/10/30 11:33:45;;;;;;;11.55;2.47;;;;;;;;;;5072557;28;20055;-87
2022/10/30 11:36:14;;;;;;;12.38;2.42;;;;;;;;;;5072768;28;20488;-87
2022/10/30 11:38:42;;;;;;;8.95;2.70;;;;;;;;;;5072118;28;20052;-86
2022/10/30 11:41:09;;;;;;;9.30;2.80;;;;;;;;;;5072290;28;20059;-89
2022/10/30 11:43:38;;;;;;;12.07;3.10;;;;;;;;;;5072458;28;20045;-85
2022/10/30 11:46:08;;;;;;;8.60;2.60;;;;;;;;;;5072585;28;20054;-88
2022/10/30 11:48:39;;;;;;;9.35;2.65;;;;;;;;;;5060634;28;20053;-87
2022/10/30 11:51:07;;;;;;;10.63;2.70;;;;;;;;;;5052140;28;20045;-86
2022/10/30 11:53:38;;;;;;;13.15;3.00;;;;;;;;;;5052066;28;20104;-83
2022/10/30 11:56:14;;;;;;;7.40;2.55;;;;;;;;;;5052167;28;20056;-84
2022/10/30 11:58:43;;;;;;;13.93;2.75;;;;;;;;;;5053113;28;20128;-86
2022/10/30 12:01:11;;;;;;;15.60;2.92;;;;;;;;;;5052190;28;20045;-88
2022/10/30 12:03:39;;;;;;;13.13;2.80;;;;;;;;;;5052013;28;20044;-87
2022/10/30 12:06:25;;;;;;;8.35;2.65;;;;;;;;;;5052925;28;20060;-85
2022/10/30 12:09:03;;;;;;;12.05;3.28;;;;;;;;;;5054299;28;20516;-89
2022/10/30 12:11:42;;;;;;;12.75;2.55;;;;;;;;;;5051994;28;20060;-84
2022/10/30 12:14:16;;;;;;;16.48;2.45;;;;;;;;;;5051768;28;20049;-85
2022/10/30 12:16:44;;;;;;;12.88;2.80;;;;;;;;;;5051408;28;20055;-86
2022/10/30 12:19:15;;;;;;;19.75;3.05;;;;;;;;;;5052409;28;20473;-87
2022/10/30 12:21:47;;;;;;;14.48;2.80;;;;;;;;;;5069974;28;20075;-86
2022/10/30 12:24:35;;;;;;;7.68;2.20;;;;;;;;;;5052424;28;20148;-86
2022/10/30 12:27:04;;;;;;;13.60;2.60;;;;;;;;;;5052644;28;20057;-88
2022/10/30 12:29:37;;;;;;;10.85;2.60;;;;;;;;;;5052233;28;20458;-86
2022/10/30 12:32:28;;;;;;;11.13;2.80;;;;;;;;;;5056353;28;20485;-86
2022/10/30 12:35:15;;;;;;;11.60;2.25;;;;;;;;;;5055975;28;20110;-87
2022/10/30 12:37:43;;;;;;;10.82;2.83;;;;;;;;;;5056279;28;20052;-85
2022/10/30 12:40:16;;;;;;;12.30;2.75;;;;;;;;;;5055987;28;20083;-87
2022/10/30 12:43:04;;;;;;;17.40;2.58;;;;;;;;;;5055943;28;20520;-87
2022/10/30 12:45:38;;;;;;;14.52;2.25;;;;;;;;;;5048706;28;20051;-85
2022/10/30 12:48:26;;;;;;;12.82;2.58;;;;;;;;;;5055599;28;20053;-87
2022/10/30 12:51:16;;;;;;;9.57;2.60;;;;;;;;;;5055169;28;20048;-87
2022/10/30 12:53:59;;;;;;;10.73;2.08;;;;;;;;;;5052059;28;20140;-87
2022/10/30 12:56:41;;;;;;;12.43;2.58;;;;;;;;;;5055481;28;20053;-88
2022/10/30 12:59:11;;;;;;;10.18;1.92;;;;;;;;;;5055405;28;20493;-86
2022/10/30 13:01:44;;;;;;;6.60;2.40;;;;;;;;;;5055091;28;20503;-88
2022/10/30 13:04:16;;;;;;;6.70;2.00;;;;;;;;;;5055495;28;20051;-86
2022/10/30 13:07:04;;;;;;;8.85;2.03;;;;;;;;;;5055493;28;20061;-87
2022/10/30 13:09:48;;;;;;;10.30;2.67;;;;;;;;;;5055110;28;20045;-86
2022/10/30 13:12:15;;;;;;;;;;;;;;;;;;5055529;28;20417;-86
2022/10/30 13:14:49;;;;;;;11.40;1.83;;;;;;;;;;5054852;28;19925;-86
2022/10/30 13:17:16;;;;;;;7.10;2.20;;;;;;;;;;5054994;28;20511;-85
2022/10/30 13:19:46;;;;;;;9.43;2.42;;;;;;;;;;5055030;28;20394;-86
2022/10/30 13:22:20;;;;;;;6.28;1.63;;;;;;;;;;5055076;28;20056;-86
2022/10/30 13:24:50;;;;;;;5.03;1.77;;;;;;;;;;5054707;28;20051;-86
2022/10/30 13:27:39;;;;;;;9.70;1.88;;;;;;;;;;5054950;28;20144;-86
2022/10/30 13:30:12;;;;;;;5.80;1.55;;;;;;;;;;5054594;28;20051;-86
2022/10/30 13:32:54;;;;;;;3.97;1.50;;;;;;;;;;5054756;28;20076;-85
2022/10/30 13:35:43;;;;;;;13.23;2.00;;;;;;;;;;5055514;28;20059;-86
2022/10/30 13:38:29;;;;;;;8.25;1.92;;;;;;;;;;5060494;28;20803;-86
2022/10/30 13:41:00;;;;;;;11.40;1.50;;;;;;;;;;5059110;28;20045;-87
2022/10/30 13:43:46;;;;;;;6.90;1.75;;;;;;;;;;5054464;28;20045;-86
2022/10/30 13:46:14;;;;;;;11.60;1.83;;;;;;;;;;5054510;28;20053;-86
2022/10/30 13:48:50;;;;;;;5.65;1.50;;;;;;;;;;5058452;28;20052;-87
2022/10/30 13:51:31;;;;;;;6.00;1.63;;;;;;;;;;5054583;28;20056;-86
2022/10/30 13:54:14;;;;;;;9.40;1.70;;;;;;;;;;5054436;28;20057;-87
2022/10/30 13:56:42;;;;;;;8.07;1.70;;;;;;;;;;5055324;28;20482;-87
2022/10/30 13:59:16;;;;;;;5.40;1.88;;;;;;;;;;5054435;28;20061;-87
2022/10/30 14:02:02;;;;;;;6.10;1.52;;;;;;;;;;5054277;28;20072;-86
2022/10/30 14:04:36;;;;;;;13.93;2.00;;;;;;;;;;5053913;28;20501;-85
2022/10/30 14:07:09;;;;;;;76.25;6.15;;;;;;;;;;5054158;28;20048;-87
2022/10/30 14:09:46;;;;;;;84.28;6.28;;;;;;;;;;5053900;28;20053;-87
2022/10/30 14:12:32;;;;;;;32.92;3.38;;;;;;;;;;5054376;28;20052;-87
2022/10/30 14:15:03;;;;;;;24.95;2.60;;;;;;;;;;5053871;28;20052;-87
2022/10/30 14:17:33;;;;;;;13.00;2.00;;;;;;;;;;5054611;28;20519;-86
2022/10/30 14:20:07;;;;;;;4.90;1.40;;;;;;;;;;5054067;28;20051;-87
2022/10/30 14:22:40;;;;;;;9.05;1.98;;;;;;;;;;5053963;28;20091;-86
2022/10/30 14:25:14;;;;;;;7.75;1.70;;;;;;;;;;5054009;28;20049;-88
2022/10/30 14:27:42;;;;;;;5.45;1.95;;;;;;;;;;5053469;28;20095;-86
2022/10/30 14:30:17;;;;;;;7.13;1.88;;;;;;;;;;5053236;28;20049;-88
2022/10/30 14:32:49;;;;;;;5.13;1.67;;;;;;;;;;5053414;28;20055;-87
2022/10/30 14:35:31;;;;;;;5.95;1.50;;;;;;;;;;5053779;28;20520;-87
2022/10/30 14:38:15;;;;;;;5.97;1.85;;;;;;;;;;5053558;28;20048;-87
2022/10/30 14:40:42;;;;;;;9.45;4.10;;;;;;;;;;5053434;28;20386;-86
2022/10/30 14:43:32;;;;;;;42.58;19.88;;;;;;;;;;5053569;28;20053;-87
2022/10/30 14:46:01;;;;;;;16.85;9.07;;;;;;;;;;5048200;28;20041;-87
2022/10/30 14:48:44;;;;;;;9.65;3.25;;;;;;;;;;5053304;28;20052;-86
2022/10/30 14:51:22;;;;;;;11.53;2.43;;;;;;;;;;5053365;28;20045;-86
2022/10/30 14:54:05;;;;;;;8.27;1.65;;;;;;;;;;5053128;28;20416;-87